Time;durP1;ratioP1;P1;durP2;ratioP2;P2;SDS_P1;SDS_P2;PMS_P1;PMS_P2;Temp;Humidity;BMP_temperature;BMP_pressure;BME280_temperature;BME280_humidity;BME280_pressure;Samples;Min_cycle;Max_cycle;Signal;HPM_P1;HPM_P2
2022/03/14 00:01:06;;;;;;;15.02;7.32;;;-3.00;99.90;;;;;;5036491;28;20463;-91
2022/03/14 00:03:41;;;;;;;11.55;7.72;;;-3.10;99.90;;;;;;5036930;28;20049;-91
2022/03/14 00:06:10;;;;;;;14.60;7.55;;;-3.10;99.90;;;;;;5036011;28;20071;-91
2022/03/14 00:08:40;;;;;;;14.57;7.40;;;-3.10;99.90;;;;;;5036078;28;20084;-92
2022/03/14 00:11:07;;;;;;;13.95;7.43;;;-3.20;99.90;;;;;;5036302;28;20049;-91
2022/03/14 00:13:34;;;;;;;17.23;8.25;;;-3.20;99.90;;;;;;5036359;28;20056;-91
2022/03/14 00:16:03;;;;;;;11.82;7.50;;;-3.20;99.90;;;;;;5036417;28;20053;-91
2022/03/14 00:18:31;;;;;;;15.88;7.75;;;-3.10;99.90;;;;;;5036511;28;20442;-91
2022/03/14 00:20:58;;;;;;;18.00;7.78;;;-3.20;99.90;;;;;;5035923;28;20437;-90
2022/03/14 00:23:28;;;;;;;15.98;8.00;;;-3.30;99.90;;;;;;5036453;28;20045;-90
2022/03/14 00:25:55;;;;;;;13.13;7.05;;;-3.30;99.90;;;;;;5036021;28;20059;-91
2022/03/14 00:28:22;;;;;;;12.80;7.78;;;-3.30;99.90;;;;;;5036082;28;20131;-90
2022/03/14 00:30:48;;;;;;;13.68;7.45;;;-3.30;99.90;;;;;;5036008;28;20045;-90
2022/03/14 00:33:15;;;;;;;11.25;7.50;;;-3.40;99.90;;;;;;5035578;28;20063;-90
2022/03/14 00:35:42;;;;;;;13.85;7.28;;;-3.30;99.90;;;;;;5035835;28;20056;-90
2022/03/14 00:38:08;;;;;;;15.05;8.15;;;-3.40;99.90;;;;;;5036001;28;20045;-90
2022/03/14 00:40:35;;;;;;;14.52;7.55;;;-3.50;99.90;;;;;;5035639;28;20124;-90
2022/03/14 00:43:02;;;;;;;11.60;7.43;;;-3.40;99.90;;;;;;5035678;28;20357;-90
2022/03/14 00:45:31;;;;;;;14.68;7.22;;;-3.50;99.90;;;;;;5036200;28;20120;-90
2022/03/14 00:47:58;;;;;;;13.63;7.82;;;-3.40;99.90;;;;;;5035491;28;20044;-90
2022/03/14 00:50:25;;;;;;;12.00;7.50;;;-3.40;99.90;;;;;;5035767;28;20144;-90
2022/03/14 00:52:52;;;;;;;13.25;7.38;;;-3.30;99.90;;;;;;5035945;28;20492;-90
2022/03/14 00:55:19;;;;;;;15.82;8.50;;;-3.40;99.90;;;;;;5036031;28;20135;-90
2022/03/14 00:57:46;;;;;;;16.60;7.78;;;-3.30;99.90;;;;;;5036207;28;20053;-89
2022/03/14 01:00:13;;;;;;;17.23;7.97;;;-3.20;99.90;;;;;;5036045;28;20131;-89
2022/03/14 01:02:40;;;;;;;13.65;7.93;;;-3.30;99.90;;;;;;5035893;28;20441;-89
2022/03/14 01:05:08;;;;;;;15.90;8.05;;;-3.30;99.90;;;;;;5035544;28;20053;-89
2022/03/14 01:07:35;;;;;;;12.10;7.28;;;-3.30;99.90;;;;;;5036346;28;20056;-90
2022/03/14 01:10:05;;;;;;;16.77;8.30;;;-3.20;99.90;;;;;;5035770;28;20061;-89
2022/03/14 01:12:32;;;;;;;11.45;7.55;;;-3.30;99.90;;;;;;5035966;28;20511;-89
2022/03/14 01:14:59;;;;;;;17.90;7.57;;;-3.30;99.90;;;;;;5036013;28;20071;-89
2022/03/14 01:17:26;;;;;;;15.13;7.68;;;-3.40;99.90;;;;;;5035673;28;20053;-89
2022/03/14 01:19:53;;;;;;;16.30;7.80;;;-3.50;99.90;;;;;;5035886;28;20045;-88
2022/03/14 01:22:20;;;;;;;11.20;6.50;;;-3.60;99.90;;;;;;5035943;28;20049;-89
2022/03/14 01:24:46;;;;;;;13.48;7.60;;;-3.60;99.90;;;;;;5035978;28;20412;-89
2022/03/14 01:27:13;;;;;;;13.65;7.35;;;-3.80;99.90;;;;;;5035921;28;20405;-88
2022/03/14 01:29:40;;;;;;;11.77;7.18;;;-3.80;99.90;;;;;;5035499;28;20044;-88
2022/03/14 01:32:07;;;;;;;15.90;7.55;;;-3.80;99.90;;;;;;5035361;28;20053;-89
2022/03/14 01:34:34;;;;;;;13.80;7.18;;;-3.70;99.90;;;;;;5035545;28;20047;-89
2022/03/14 01:37:02;;;;;;;12.95;7.28;;;-3.70;99.90;;;;;;5039373;28;20044;-89
2022/03/14 01:39:29;;;;;;;11.90;7.10;;;-3.70;99.90;;;;;;5039807;28;20432;-90
2022/03/14 01:41:56;;;;;;;13.60;7.18;;;-3.80;99.90;;;;;;5041817;28;20104;-89
2022/03/14 01:44:24;;;;;;;20.00;8.23;;;-3.90;99.90;;;;;;5041429;28;20063;-88
2022/03/14 01:46:52;;;;;;;17.02;7.35;;;-3.90;99.90;;;;;;5038813;28;20049;-88
2022/03/14 01:49:20;;;;;;;13.27;7.38;;;-3.90;99.90;;;;;;5039176;28;20048;-88
2022/03/14 01:51:47;;;;;;;13.95;7.50;;;-3.90;99.90;;;;;;5038833;28;20148;-89
2022/03/14 01:54:14;;;;;;;15.43;7.38;;;-3.90;99.90;;;;;;5039146;28;20048;-88
2022/03/14 01:56:43;;;;;;;13.43;7.63;;;-4.00;99.90;;;;;;5039083;28;20094;-88
2022/03/14 01:59:10;;;;;;;11.32;7.15;;;-4.00;99.90;;;;;;5038776;28;20099;-88
2022/03/14 02:01:37;;;;;;;14.45;7.65;;;-4.10;99.90;;;;;;5056293;28;20067;-90
2022/03/14 02:04:08;;;;;;;13.38;7.50;;;-4.20;99.90;;;;;;5038488;28;20049;-90
2022/03/14 02:06:35;;;;;;;12.32;7.03;;;-4.20;99.90;;;;;;5038961;28;20053;-90
2022/03/14 02:09:03;;;;;;;13.13;7.05;;;-4.00;99.90;;;;;;5038792;28;20053;-90
2022/03/14 02:11:30;;;;;;;11.35;6.97;;;-4.10;99.90;;;;;;5038295;28;20496;-90
2022/03/14 02:13:57;;;;;;;12.25;7.30;;;-4.10;99.90;;;;;;5038685;28;20086;-90
2022/03/14 02:16:23;;;;;;;14.85;7.07;;;-4.00;99.90;;;;;;5038726;28;20045;-90
2022/03/14 02:18:50;;;;;;;13.32;7.22;;;-4.00;99.90;;;;;;5056055;28;20063;-90
2022/03/14 02:21:17;;;;;;;14.55;6.93;;;-4.00;99.90;;;;;;5038535;28;20501;-89
2022/03/14 02:23:44;;;;;;;14.13;6.80;;;-4.00;99.90;;;;;;5038363;28;20056;-89
2022/03/14 02:26:11;;;;;;;13.35;6.88;;;-4.00;99.90;;;;;;5037694;28;20422;-89
2022/03/14 02:28:38;;;;;;;11.23;6.72;;;-4.00;99.90;;;;;;5055648;28;20404;-89
2022/03/14 02:31:05;;;;;;;11.55;6.45;;;-3.90;99.90;;;;;;5038365;28;20053;-89
2022/03/14 02:33:32;;;;;;;18.25;7.25;;;-4.00;99.90;;;;;;5038026;28;20488;-89
2022/03/14 02:35:59;;;;;;;12.50;6.75;;;-4.00;99.90;;;;;;5038190;28;20044;-89
2022/03/14 02:38:26;;;;;;;14.95;7.30;;;-4.00;99.90;;;;;;5038176;28;20511;-89
2022/03/14 02:40:53;;;;;;;11.73;6.88;;;-4.00;99.90;;;;;;5037788;28;20086;-89
2022/03/14 02:43:24;;;;;;;11.15;7.03;;;-4.00;99.90;;;;;;5037825;28;20512;-89
2022/03/14 02:45:54;;;;;;;10.30;6.82;;;-4.00;99.90;;;;;;5038339;28;20053;-90
2022/03/14 02:48:23;;;;;;;16.90;7.45;;;-4.10;99.90;;;;;;5038459;28;20117;-87
2022/03/14 02:50:53;;;;;;;17.85;7.78;;;-4.20;99.90;;;;;;5038138;28;20075;-90
2022/03/14 02:53:20;;;;;;;17.65;7.00;;;-4.30;99.90;;;;;;5037774;28;20057;-90
2022/03/14 02:55:48;;;;;;;11.00;6.95;;;-4.20;99.90;;;;;;5037678;28;20485;-89
2022/03/14 02:58:15;;;;;;;11.50;6.15;;;-4.30;99.90;;;;;;5037917;28;20152;-90
2022/03/14 03:00:42;;;;;;;11.50;6.82;;;-4.30;99.90;;;;;;5038038;28;20055;-90
2022/03/14 03:03:11;;;;;;;10.70;6.75;;;-4.30;99.90;;;;;;5037720;28;20489;-88
2022/03/14 03:05:43;;;;;;;11.38;7.22;;;-4.50;99.90;;;;;;5037163;28;20075;-89
2022/03/14 03:08:11;;;;;;;11.52;7.07;;;-4.50;99.90;;;;;;5037733;28;20052;-89
2022/03/14 03:10:39;;;;;;;10.38;6.78;;;-4.60;99.90;;;;;;5054891;28;20053;-89
2022/03/14 03:13:06;;;;;;;12.93;6.82;;;-4.70;99.90;;;;;;5037335;28;20053;-89
2022/03/14 03:15:37;;;;;;;11.50;7.07;;;-4.70;99.90;;;;;;5037683;28;20045;-89
2022/03/14 03:18:05;;;;;;;14.40;7.28;;;-4.70;99.90;;;;;;5037196;28;20049;-89
2022/03/14 03:20:32;;;;;;;10.30;6.30;;;-4.60;99.90;;;;;;5054493;28;20131;-89
2022/03/14 03:22:58;;;;;;;10.45;6.57;;;-4.60;99.90;;;;;;5037038;28;20484;-89
2022/03/14 03:25:25;;;;;;;10.10;6.40;;;-4.70;99.90;;;;;;5054768;28;20053;-89
2022/03/14 03:27:52;;;;;;;11.57;6.43;;;-4.70;99.90;;;;;;5037123;28;20053;-89
2022/03/14 03:30:23;;;;;;;9.80;6.72;;;-4.80;99.90;;;;;;5037743;28;20521;-89
2022/03/14 03:32:49;;;;;;;11.00;6.97;;;-4.70;99.90;;;;;;5036783;28;20045;-89
2022/03/14 03:35:16;;;;;;;11.20;7.22;;;-4.80;99.90;;;;;;5036605;28;20059;-87
2022/03/14 03:37:43;;;;;;;12.18;6.93;;;-4.80;99.90;;;;;;5037072;28;20053;-89
2022/03/14 03:40:10;;;;;;;10.77;6.75;;;-4.80;99.90;;;;;;5037150;28;20055;-88
2022/03/14 03:42:37;;;;;;;12.77;7.55;;;-4.80;99.90;;;;;;5054435;28;20048;-89
2022/03/14 03:45:05;;;;;;;15.27;7.50;;;-4.70;99.90;;;;;;5036415;28;20481;-89
2022/03/14 03:47:32;;;;;;;12.25;6.82;;;-4.70;99.90;;;;;;5036940;28;20061;-88
2022/03/14 03:49:59;;;;;;;14.10;7.45;;;-4.60;99.90;;;;;;5053978;28;20143;-89
2022/03/14 03:52:26;;;;;;;11.63;6.80;;;-4.60;99.90;;;;;;5036419;28;20507;-89
2022/03/14 03:54:53;;;;;;;14.20;6.88;;;-4.50;99.90;;;;;;5036550;28;20049;-88
2022/03/14 03:57:20;;;;;;;13.07;7.32;;;-4.60;99.90;;;;;;5054008;28;20065;-89
2022/03/14 03:59:46;;;;;;;9.88;6.50;;;-4.50;99.90;;;;;;5036210;28;20493;-89
2022/03/14 04:02:16;;;;;;;14.02;7.90;;;-4.50;99.90;;;;;;5036459;28;20091;-89
2022/03/14 04:04:43;;;;;;;13.52;6.40;;;-4.50;99.90;;;;;;5054056;28;20135;-89
2022/03/14 04:07:10;;;;;;;32.88;8.77;;;-4.60;99.90;;;;;;5054292;28;20057;-89
2022/03/14 04:09:36;;;;;;;16.88;7.97;;;-4.50;99.90;;;;;;5036032;28;20524;-89
2022/03/14 04:12:03;;;;;;;16.90;7.30;;;-4.60;99.90;;;;;;5053708;28;20044;-89
2022/03/14 04:14:30;;;;;;;10.80;6.75;;;-4.80;99.90;;;;;;5036519;28;20055;-89
2022/03/14 04:17:01;;;;;;;17.10;7.75;;;-4.80;99.90;;;;;;5053758;28;20136;-89
2022/03/14 04:19:29;;;;;;;10.20;6.32;;;-4.80;99.90;;;;;;5053698;28;20104;-88
2022/03/14 04:21:56;;;;;;;13.95;7.03;;;-4.90;99.90;;;;;;5036273;28;20103;-89
2022/03/14 04:24:24;;;;;;;11.93;6.90;;;-4.90;99.90;;;;;;5036396;28;20128;-89
2022/03/14 04:26:51;;;;;;;15.68;7.45;;;-4.90;99.90;;;;;;5036266;28;20084;-88
2022/03/14 04:29:18;;;;;;;12.80;7.13;;;-4.80;99.90;;;;;;5053641;28;20063;-88
2022/03/14 04:31:45;;;;;;;16.85;7.88;;;-4.80;99.90;;;;;;5035848;28;20136;-88
2022/03/14 04:34:12;;;;;;;17.00;6.88;;;-4.80;99.90;;;;;;5035849;28;20053;-89
2022/03/14 04:36:39;;;;;;;12.77;6.72;;;-4.80;99.90;;;;;;5053364;28;20060;-88
2022/03/14 04:39:06;;;;;;;18.23;8.25;;;-4.90;99.90;;;;;;5036077;28;20084;-88
2022/03/14 04:41:36;;;;;;;23.90;7.70;;;-4.90;99.90;;;;;;5035785;28;20047;-88
2022/03/14 04:44:04;;;;;;;17.23;7.38;;;-4.90;99.90;;;;;;5053318;28;20104;-88
2022/03/14 04:46:31;;;;;;;15.00;7.30;;;-4.90;99.90;;;;;;5036084;28;20417;-89
2022/03/14 04:48:57;;;;;;;12.52;7.43;;;-4.80;99.90;;;;;;5035645;28;20055;-88
2022/03/14 04:51:25;;;;;;;14.75;7.70;;;-4.80;99.90;;;;;;5035461;28;20373;-88
2022/03/14 04:53:51;;;;;;;14.10;6.97;;;-5.00;99.90;;;;;;5035461;28;20080;-88
2022/03/14 04:56:18;;;;;;;17.27;8.57;;;-5.10;99.90;;;;;;5035742;28;20464;-88
2022/03/14 04:58:45;;;;;;;14.32;7.53;;;-5.00;99.90;;;;;;5035317;28;20136;-88
2022/03/14 05:01:12;;;;;;;12.07;7.57;;;-5.00;99.90;;;;;;5035702;28;20080;-88
2022/03/14 05:03:39;;;;;;;16.83;10.07;;;-5.20;99.90;;;;;;5035361;28;20055;-88
2022/03/14 05:06:06;;;;;;;13.43;8.50;;;-5.20;99.90;;;;;;5052756;28;20489;-88
2022/03/14 05:08:33;;;;;;;22.42;12.27;;;-5.20;99.90;;;;;;5053058;28;20140;-88
2022/03/14 05:11:00;;;;;;;32.22;16.30;;;-5.10;99.90;;;;;;5036474;28;20110;-88
2022/03/14 05:13:27;;;;;;;22.92;11.70;;;-5.00;99.90;;;;;;5039161;28;20060;-88
2022/03/14 05:15:53;;;;;;;18.23;9.25;;;-4.90;99.90;;;;;;5039301;28;20049;-88
2022/03/14 05:18:20;;;;;;;27.00;8.65;;;-4.80;99.90;;;;;;5056950;28;20049;-88
2022/03/14 05:20:47;;;;;;;26.92;8.48;;;-4.70;99.90;;;;;;5039450;28;20053;-88
2022/03/14 05:23:14;;;;;;;14.38;8.38;;;-4.60;99.90;;;;;;5039434;28;20143;-88
2022/03/14 05:25:40;;;;;;;26.45;8.27;;;-4.50;99.90;;;;;;5039328;28;20112;-88
2022/03/14 05:28:07;;;;;;;17.30;7.13;;;-4.30;99.90;;;;;;5039149;28;20056;-88
2022/03/14 05:30:34;;;;;;;17.05;7.72;;;-4.10;99.90;;;;;;5039579;28;20091;-88
2022/03/14 05:33:01;;;;;;;25.38;9.02;;;-4.10;99.90;;;;;;5039451;28;20048;-88
2022/03/14 05:35:28;;;;;;;15.90;8.18;;;-4.00;99.90;;;;;;5039512;28;20124;-88
2022/03/14 05:37:55;;;;;;;13.13;7.25;;;-3.90;99.90;;;;;;5039431;28;20405;-88
2022/03/14 05:40:21;;;;;;;11.45;7.68;;;-3.80;99.90;;;;;;5038677;28;20068;-88
2022/03/14 05:42:49;;;;;;;13.85;8.07;;;-3.60;99.90;;;;;;5039005;28;20053;-88
2022/03/14 05:45:19;;;;;;;13.98;7.22;;;-3.60;99.90;;;;;;5038935;28;20135;-89
2022/03/14 05:47:46;;;;;;;24.30;7.70;;;-3.40;99.90;;;;;;5056957;28;20045;-89
2022/03/14 05:50:13;;;;;;;18.42;7.88;;;-3.40;99.90;;;;;;5039482;28;20063;-89
2022/03/14 05:52:41;;;;;;;17.50;6.90;;;-3.40;99.90;;;;;;5056476;28;20049;-89
2022/03/14 05:55:08;;;;;;;18.33;7.35;;;-3.20;99.90;;;;;;5038814;28;20467;-88
2022/03/14 05:57:35;;;;;;;13.63;7.32;;;-3.10;99.90;;;;;;5039097;28;20140;-89
2022/03/14 06:00:06;;;;;;;15.30;7.35;;;-3.10;99.90;;;;;;5039301;28;20048;-87
2022/03/14 06:02:34;;;;;;;19.77;8.63;;;-2.90;99.90;;;;;;5039002;28;20045;-89
2022/03/14 06:05:02;;;;;;;26.58;8.85;;;-2.90;99.90;;;;;;5038492;28;20053;-90
2022/03/14 06:07:29;;;;;;;16.88;8.43;;;-2.80;99.90;;;;;;5038622;28;20503;-90
2022/03/14 06:09:56;;;;;;;24.58;8.40;;;-2.70;99.90;;;;;;5038668;28;20056;-90
2022/03/14 06:12:30;;;;;;;26.58;9.30;;;-2.70;99.90;;;;;;5038779;28;20079;-90
2022/03/14 06:14:59;;;;;;;23.67;8.25;;;-2.70;99.90;;;;;;5038800;28;20455;-88
2022/03/14 06:17:31;;;;;;;23.30;8.32;;;-2.50;99.90;;;;;;5039475;28;20049;-88
2022/03/14 06:19:57;;;;;;;31.45;13.63;;;-2.40;99.90;;;;;;5038189;28;20206;-88
2022/03/14 06:22:24;;;;;;;31.67;15.38;;;-2.30;99.90;;;;;;5038050;28;20049;-89
2022/03/14 06:24:51;;;;;;;13.85;9.40;;;-2.30;99.90;;;;;;5038605;28;20405;-88
2022/03/14 06:27:20;;;;;;;23.95;12.55;;;-2.20;99.90;;;;;;5057791;28;20044;-89
2022/03/14 06:29:51;;;;;;;19.48;10.18;;;-2.00;99.90;;;;;;5039540;28;20072;-88
2022/03/14 06:32:18;;;;;;;21.35;9.88;;;-1.80;99.90;;;;;;5038134;28;20059;-91
2022/03/14 06:34:45;;;;;;;20.75;10.50;;;-1.60;99.90;;;;;;5055034;28;20055;-90
2022/03/14 06:37:12;;;;;;;23.58;8.82;;;-1.50;99.90;;;;;;5038085;28;20081;-91
2022/03/14 06:39:39;;;;;;;17.30;9.75;;;-1.30;99.90;;;;;;5038342;28;20049;-91
2022/03/14 06:42:09;;;;;;;31.60;11.00;;;-1.00;99.90;;;;;;5038204;28;20080;-91
2022/03/14 06:44:39;;;;;;;18.67;9.25;;;-1.00;99.90;;;;;;5038387;28;20100;-91
2022/03/14 06:47:08;;;;;;;28.23;13.23;;;-0.90;99.90;;;;;;5038415;28;20053;-91
2022/03/14 06:49:39;;;;;;;18.90;10.90;;;-0.70;99.90;;;;;;5055780;28;20057;-91
2022/03/14 06:52:06;;;;;;;26.05;13.02;;;-0.40;99.90;;;;;;5038240;28;20049;-89
2022/03/14 06:54:33;;;;;;;23.73;13.95;;;-0.10;99.90;;;;;;5056395;28;20489;-92
2022/03/14 06:57:00;;;;;;;23.75;11.15;;;0.10;99.90;;;;;;5038465;28;20467;-92
2022/03/14 06:59:27;;;;;;;21.20;11.43;;;0.30;99.90;;;;;;5038276;28;20059;-91
2022/03/14 07:01:54;;;;;;;21.60;8.93;;;0.60;99.90;;;;;;5038216;28;20143;-92
2022/03/14 07:04:20;;;;;;;16.08;8.35;;;0.70;99.90;;;;;;5038206;28;20052;-92
2022/03/14 07:06:47;;;;;;;17.17;8.77;;;0.80;99.90;;;;;;5038363;28;20144;-91
2022/03/14 07:09:14;;;;;;;17.90;7.88;;;0.80;99.90;;;;;;5038618;28;20083;-91
2022/03/14 07:11:41;;;;;;;16.13;7.95;;;0.90;99.90;;;;;;5038880;28;20080;-90
2022/03/14 07:14:08;;;;;;;19.15;8.65;;;1.10;99.90;;;;;;5037605;28;20140;-93
2022/03/14 07:16:35;;;;;;;22.75;8.75;;;1.30;99.90;;;;;;5038245;28;20129;-93
2022/03/14 07:19:02;;;;;;;20.17;9.23;;;1.40;99.90;;;;;;5038636;28;20077;-94
2022/03/14 07:21:29;;;;;;;13.65;8.73;;;1.40;99.90;;;;;;5038510;28;20120;-94
2022/03/14 07:23:56;;;;;;;16.27;8.10;;;1.40;99.90;;;;;;5038499;28;20508;-95
2022/03/14 07:26:23;;;;;;;17.98;11.32;;;1.40;99.90;;;;;;5037896;28;20056;-94
2022/03/14 07:28:50;;;;;;;26.88;10.30;;;1.40;99.90;;;;;;5038210;28;20135;-95
2022/03/14 07:31:18;;;;;;;21.73;9.73;;;1.50;99.90;;;;;;5037995;28;20049;-95
2022/03/14 07:33:45;;;;;;;26.73;9.63;;;1.80;99.90;;;;;;5037477;28;20056;-96
2022/03/14 07:36:13;;;;;;;23.73;9.60;;;2.00;99.90;;;;;;5038791;28;20409;-96
2022/03/14 07:38:39;;;;;;;30.55;11.75;;;2.10;99.90;;;;;;5039404;28;20045;-95
2022/03/14 07:41:08;;;;;;;20.55;9.50;;;2.40;99.90;;;;;;5038845;28;20128;-96
2022/03/14 07:43:35;;;;;;;24.27;9.65;;;2.60;99.90;;;;;;5038699;28;20091;-93
2022/03/14 07:46:02;;;;;;;31.00;10.43;;;2.70;99.90;;;;;;5057015;28;20148;-96
2022/03/14 07:48:30;;;;;;;26.98;10.63;;;2.90;99.90;;;;;;5042673;28;20515;-96
2022/03/14 07:50:58;;;;;;;38.05;11.07;;;3.00;99.90;;;;;;5049765;28;20057;-96
2022/03/14 07:53:27;;;;;;;27.95;11.52;;;3.20;99.90;;;;;;5036099;28;20048;-96
2022/03/14 07:55:57;;;;;;;20.70;9.35;;;3.40;99.90;;;;;;5040781;28;20049;-96
2022/03/14 07:58:36;;;;;;;32.13;10.70;;;3.40;99.90;;;;;;5055012;28;20086;-93
2022/03/14 08:01:03;;;;;;;32.10;10.93;;;3.40;99.90;;;;;;5053951;28;20052;-96
2022/03/14 08:03:32;;;;;;;32.45;10.93;;;3.60;99.90;;;;;;5033994;28;20075;-96
2022/03/14 08:06:00;;;;;;;23.20;9.55;;;3.80;99.90;;;;;;5043260;28;20102;-96
2022/03/14 08:08:28;;;;;;;25.85;10.68;;;4.00;99.90;;;;;;5039899;28;20072;-93
2022/03/14 08:10:55;;;;;;;23.67;11.05;;;4.10;99.90;;;;;;5038293;28;20049;-96
2022/03/14 08:13:22;;;;;;;32.55;9.45;;;4.10;99.90;;;;;;5037528;28;20572;-91
2022/03/14 08:15:49;;;;;;;35.70;10.48;;;4.00;99.90;;;;;;5037610;28;20081;-94
2022/03/14 08:18:16;;;;;;;29.65;10.38;;;3.70;99.90;;;;;;5037586;28;20106;-95
2022/03/14 08:20:42;;;;;;;26.63;10.02;;;3.60;99.90;;;;;;5036850;28;20045;-94
2022/03/14 08:23:10;;;;;;;31.75;11.05;;;3.50;99.90;;;;;;5036905;28;20064;-94
2022/03/14 08:25:37;;;;;;;27.50;10.38;;;3.30;99.90;;;;;;5036832;28;20084;-94
2022/03/14 08:28:04;;;;;;;23.73;10.43;;;3.40;99.90;;;;;;5036631;28;20553;-94
2022/03/14 08:30:30;;;;;;;25.13;9.82;;;3.50;99.90;;;;;;5036239;28;20140;-94
2022/03/14 08:32:58;;;;;;;20.73;10.18;;;3.60;99.90;;;;;;5036715;28;20049;-94
2022/03/14 08:35:26;;;;;;;23.77;10.55;;;3.70;99.90;;;;;;5036229;28;20083;-94
2022/03/14 08:37:54;;;;;;;38.03;11.70;;;3.80;99.90;;;;;;5036466;28;20045;-93
2022/03/14 08:40:23;;;;;;;53.05;12.35;;;3.80;99.90;;;;;;5036101;28;20136;-94
2022/03/14 08:42:52;;;;;;;48.25;12.98;;;3.80;99.90;;;;;;5036101;28;20053;-93
2022/03/14 08:45:20;;;;;;;37.55;13.75;;;3.80;99.90;;;;;;5036389;28;20116;-93
2022/03/14 08:47:47;;;;;;;57.25;17.75;;;3.80;99.90;;;;;;5036207;28;20452;-93
2022/03/14 08:50:15;;;;;;;52.40;16.60;;;3.80;99.90;;;;;;5036146;28;20130;-92
2022/03/14 08:52:42;;;;;;;44.92;14.02;;;3.90;99.90;;;;;;5035963;28;20071;-92
2022/03/14 08:55:10;;;;;;;36.45;15.13;;;3.80;99.90;;;;;;5036363;28;20053;-92
2022/03/14 08:57:40;;;;;;;48.80;20.92;;;4.00;99.90;;;;;;5036391;28;20045;-91
2022/03/14 09:00:07;;;;;;;42.72;20.15;;;4.10;99.90;;;;;;5036117;28;20069;-91
2022/03/14 09:02:34;;;;;;;41.33;19.25;;;4.30;99.90;;;;;;5035365;28;20068;-90
2022/03/14 09:05:01;;;;;;;46.33;19.08;;;4.50;99.90;;;;;;5035664;28;20045;-90
2022/03/14 09:07:30;;;;;;;43.85;17.50;;;4.70;99.90;;;;;;5035717;28;20324;-90
2022/03/14 09:10:04;;;;;;;34.80;13.85;;;4.90;99.90;;;;;;5035279;28;20083;-90
2022/03/14 09:12:33;;;;;;;14.23;8.13;;;5.00;99.90;;;;;;5036037;28;20541;-90
2022/03/14 09:15:01;;;;;;;14.65;6.80;;;5.40;86.40;;;;;;5035552;28;20524;-90
2022/03/14 09:17:28;;;;;;;12.38;6.50;;;5.90;78.00;;;;;;5035572;28;20148;-91
2022/03/14 09:19:55;;;;;;;11.90;7.13;;;6.20;71.50;;;;;;5035793;28;20071;-90
2022/03/14 09:22:22;;;;;;;11.13;6.88;;;6.60;69.30;;;;;;5035880;28;20132;-90
2022/03/14 09:24:49;;;;;;;14.02;7.15;;;6.90;67.60;;;;;;5036052;28;20065;-91
2022/03/14 09:27:15;;;;;;;13.25;6.97;;;7.00;68.40;;;;;;5035971;28;20053;-91
2022/03/14 09:29:42;;;;;;;9.93;7.03;;;7.10;68.30;;;;;;5035814;28;20128;-92
2022/03/14 09:32:10;;;;;;;10.43;6.60;;;7.10;69.10;;;;;;5035665;28;20057;-91
2022/03/14 09:34:37;;;;;;;12.40;7.70;;;7.10;70.90;;;;;;5035527;28;20079;-92
2022/03/14 09:37:04;;;;;;;11.77;7.43;;;6.80;75.40;;;;;;5036272;28;20053;-89
2022/03/14 09:39:32;;;;;;;11.75;7.82;;;6.50;81.50;;;;;;5035925;28;20139;-90
2022/03/14 09:42:01;;;;;;;10.63;7.88;;;6.10;85.90;;;;;;5035978;28;20131;-92
2022/03/14 09:44:29;;;;;;;11.35;7.60;;;5.80;95.10;;;;;;5035678;28;20155;-92
2022/03/14 09:47:01;;;;;;;12.05;8.57;;;5.60;99.90;;;;;;5036530;28;20045;-92
2022/03/14 09:49:31;;;;;;;18.40;8.10;;;5.40;99.90;;;;;;5036450;28;20063;-93
2022/03/14 09:51:59;;;;;;;15.32;8.52;;;5.10;99.90;;;;;;5038709;28;20508;-93
2022/03/14 09:54:26;;;;;;;13.25;8.63;;;5.00;99.90;;;;;;5042888;28;20045;-93
2022/03/14 09:57:01;;;;;;;15.63;9.18;;;4.80;99.90;;;;;;5039748;28;20045;-93
2022/03/14 09:59:30;;;;;;;15.33;10.00;;;4.60;99.90;;;;;;5045964;28;20088;-94
2022/03/14 10:01:57;;;;;;;14.18;10.07;;;4.40;99.90;;;;;;5043860;28;20073;-95
2022/03/14 10:04:24;;;;;;;15.98;10.57;;;4.30;99.90;;;;;;5042154;28;20114;-95
2022/03/14 10:06:51;;;;;;;19.70;12.50;;;4.20;99.90;;;;;;5047562;28;20063;-95
2022/03/14 10:09:18;;;;;;;24.40;14.27;;;4.10;99.90;;;;;;5042681;28;20441;-95
2022/03/14 10:11:45;;;;;;;21.45;13.05;;;4.00;99.90;;;;;;5040649;28;20172;-94
2022/03/14 10:14:17;;;;;;;24.55;13.02;;;4.00;99.90;;;;;;5040452;28;20091;-94
2022/03/14 10:16:44;;;;;;;13.77;10.80;;;4.00;99.90;;;;;;5041185;28;20118;-96
2022/03/14 10:19:20;;;;;;;18.33;12.98;;;4.00;99.90;;;;;;5042382;28;20049;-95
2022/03/14 10:21:50;;;;;;;25.23;14.20;;;4.00;99.90;;;;;;5040259;28;20055;-94
2022/03/14 10:24:21;;;;;;;22.05;12.95;;;4.00;99.90;;;;;;5040357;28;20616;-95
2022/03/14 10:26:49;;;;;;;24.90;13.60;;;4.00;99.90;;;;;;5039815;28;20048;-94
2022/03/14 10:29:19;;;;;;;17.75;13.15;;;4.10;99.90;;;;;;5039887;28;20060;-95
2022/03/14 10:31:55;;;;;;;18.13;12.60;;;4.00;99.90;;;;;;5039909;28;20045;-95
2022/03/14 10:34:22;;;;;;;19.83;12.32;;;4.00;99.90;;;;;;5039444;28;20073;-95
2022/03/14 10:36:51;;;;;;;23.52;12.18;;;4.10;99.90;;;;;;5039467;28;20124;-94
2022/03/14 10:39:29;;;;;;;19.33;12.38;;;4.20;99.90;;;;;;5040103;28;20064;-93
2022/03/14 10:42:09;;;;;;;22.33;13.55;;;4.40;99.90;;;;;;5039241;28;20493;-93
2022/03/14 10:44:47;;;;;;;15.23;11.00;;;4.50;99.90;;;;;;5040041;28;20072;-94
2022/03/14 10:47:14;;;;;;;19.30;12.68;;;4.70;99.90;;;;;;5038671;28;20053;-93
2022/03/14 10:49:45;;;;;;;20.42;12.90;;;4.90;99.90;;;;;;5038934;28;20398;-93
2022/03/14 10:52:18;;;;;;;20.75;14.35;;;5.10;99.90;;;;;;5039012;28;20049;-92
2022/03/14 10:54:47;;;;;;;28.65;14.57;;;5.20;99.90;;;;;;5038686;28;20049;-93
2022/03/14 10:57:17;;;;;;;22.38;13.80;;;5.30;99.90;;;;;;5038481;28;20072;-92
2022/03/14 10:59:51;;;;;;;23.60;12.27;;;5.30;99.90;;;;;;5038836;28;20456;-93
2022/03/14 11:02:26;;;;;;;24.67;12.18;;;5.50;99.90;;;;;;5038760;28;20076;-93
2022/03/14 11:04:58;;;;;;;19.52;12.13;;;6.00;99.90;;;;;;5038593;28;20049;-93
2022/03/14 11:07:26;;;;;;;18.35;11.45;;;6.70;99.90;;;;;;5038309;28;20060;-92
2022/03/14 11:09:58;;;;;;;15.52;11.23;;;7.00;99.90;;;;;;5038771;28;20068;-93
2022/03/14 11:12:27;;;;;;;14.98;11.15;;;7.10;99.90;;;;;;5038587;28;20057;-93
2022/03/14 11:14:58;;;;;;;17.92;12.20;;;7.60;99.90;;;;;;5037806;28;20053;-92
2022/03/14 11:17:32;;;;;;;16.17;11.00;;;8.00;99.90;;;;;;5039332;28;20140;-93
2022/03/14 11:20:19;;;;;;;15.30;10.73;;;8.10;99.90;;;;;;5043171;28;20053;-95
2022/03/14 11:22:46;;;;;;;15.70;9.45;;;8.20;99.90;;;;;;5038992;28;20082;-88
2022/03/14 11:25:14;;;;;;;8.48;6.78;;;8.30;99.90;;;;;;5038108;28;20098;-92
2022/03/14 11:27:42;;;;;;;10.73;7.43;;;8.20;99.90;;;;;;5037677;28;20049;-90
2022/03/14 11:30:13;;;;;;;9.50;7.47;;;8.10;99.90;;;;;;5038181;28;20071;-93
2022/03/14 11:32:41;;;;;;;9.65;7.28;;;8.20;99.90;;;;;;5038773;28;20456;-94
2022/03/14 11:35:09;;;;;;;12.13;7.05;;;7.90;99.90;;;;;;5040877;28;20049;-94
2022/03/14 11:37:37;;;;;;;7.72;6.60;;;7.90;99.90;;;;;;5042346;28;20113;-95
2022/03/14 11:40:10;;;;;;;7.93;6.10;;;7.90;99.90;;;;;;5040815;28;20136;-96
2022/03/14 11:42:39;;;;;;;7.13;6.38;;;7.90;99.90;;;;;;5045751;28;20069;-94
2022/03/14 11:45:52;;;;;;;;;;;;;;;;;;;;;
2022/03/14 11:49:22;;;;;;;9.15;5.85;;;7.70;99.90;;;;;;5023913;28;20045;-96
2022/03/14 11:52:26;;;;;;;4.95;4.40;;;7.70;99.90;;;;;;5031850;28;20101;-95
2022/03/14 11:55:07;;;;;;;5.35;4.85;;;7.70;99.90;;;;;;5029351;28;20053;-96
2022/03/14 11:57:48;;;;;;;5.68;4.82;;;7.60;99.90;;;;;;5052132;28;20049;-96
2022/03/14 12:00:50;;;;;;;4.65;4.25;;;7.60;99.90;;;;;;5012016;23;20136;-85
2022/03/14 12:03:47;;;;;;;4.10;3.80;;;7.70;99.90;;;;;;5001383;28;20056;-85
2022/03/14 12:06:59;;;;;;;4.70;4.00;;;7.70;99.90;;;;;;5001702;28;20049;-84
2022/03/14 12:09:55;;;;;;;4.53;4.13;;;7.70;99.90;;;;;;5003558;28;20037;-85
2022/03/14 12:12:49;;;;;;;;;;;;;;;;;;;;;
2022/03/14 12:15:51;;;;;;;4.30;3.90;;;7.70;99.90;;;;;;4938052;29;20107;-86
2022/03/14 12:19:20;;;;;;;4.15;3.75;;;7.60;99.90;;;;;;4899485;29;20060;-85
2022/03/14 12:22:01;;;;;;;3.67;3.38;;;7.40;99.90;;;;;;4900871;29;20052;-85
2022/03/14 12:25:10;;;;;;;3.88;3.58;;;7.20;99.90;;;;;;4901877;29;20049;-85
2022/03/14 12:27:53;;;;;;;4.28;3.88;;;7.10;99.90;;;;;;4896763;29;20481;-86
2022/03/14 12:30:45;;;;;;;4.47;4.03;;;7.10;99.90;;;;;;4899517;29;20519;-87
2022/03/14 12:40:35;;;;;;;4.55;3.80;;;7.00;99.90;;;;;;4900397;29;20128;-85
2022/03/14 12:43:28;;;;;;;4.27;3.73;;;7.00;99.90;;;;;;4900638;29;20076;-85
2022/03/14 12:46:02;;;;;;;5.38;4.30;;;7.10;99.90;;;;;;4899222;29;20057;-86
2022/03/14 12:48:54;;;;;;;3.03;2.83;;;7.00;99.90;;;;;;4904362;29;20462;-84
2022/03/14 12:51:43;;;;;;;2.75;2.55;;;7.00;99.90;;;;;;4937415;29;20058;-86
2022/03/14 12:54:36;;;;;;;3.38;2.80;;;7.00;99.90;;;;;;5001902;28;20053;-85
2022/03/14 12:57:17;;;;;;;3.28;2.80;;;7.00;99.90;;;;;;4985461;28;20132;-85
2022/03/14 12:59:48;;;;;;;;;;;7.10;99.90;;;;;;5017205;28;20050;-85
2022/03/14 13:02:26;;;;;;;3.45;3.15;;;7.10;99.90;;;;;;5000204;28;19929;-84
2022/03/14 13:05:09;;;;;;;3.08;1.85;;;7.10;99.90;;;;;;5000259;28;20168;-84